Terminal Aerodrome Forecast
Issued by NWS Portland, OR

Home | Current Version | Previous Version | Text Only | Print | Product List | Glossary On
Versions: 1 2 3 4 5 6 7 8 9 10 11 12 13 14 15 16 17 18 19 20 21 22 23 24 25 26 27 28 29 30 31 32
000
FTUS46 KPQR 271113 AAA
TAFHIO
TAF AMD
KHIO 271113Z 2711/2806 VRB03KT P6SM OVC015
     FM271500 VRB03KT P6SM OVC025
     FM271800 VRB03KT P6SM SCT025 OVC035
     FM272000 31004KT P6SM BKN045
     FM272100 32008KT P6SM FEW050
     FM280400 31006KT P6SM SKC=

USA.gov is the U.S. government's official web portal to all federal, state and local government web resources and services.